aviador You're here:

RKPK Decoded Metar

KIMHAE in KOREA
Report Time2018-06-23 12:00:00
UTC Time2018-06-23 12:14:03
Flight Rules vfr VFR
Wind210° at 08 kt
W.Decomp.*RWY 18: 6.4 kt HW 4.8 kt RCW
W.Rank210° ranks 18
Current wind is above 210° avg. (6.1)
Visibility9999 m
Phenomena:N/A
Clouds:N/A
Expected CloudBase > 3,200 ft AGL from Temp-Dew spread
CeilingNone
Temp23°C (ISA +8)
Dew Point15°C (61% RH)
AAT21.8°C
QNH1004 hPa
Density Alt1,522 ft
Elevation49 ft
Report Wrong Elevation
Raw Report
RKPK 231200Z 21008KT CAVOK 23/15 Q1004 NOSIG=

Extra information for RKPK:More info

Metar Taf Metar & Taf Last 4 Metars F.Rules Stats Wind Profile Meteogram Temp Stats Airport Information Weather charts Add Link Nearby VenuesMetar ALERT Operation Metar Decoded Social comments